createdAt,value
2024-02-02T00:02:05.037Z,103164.03
2024-02-02T00:04:31.720Z,103160.47
2024-02-02T00:06:58.338Z,103157.84
2024-02-02T00:09:24.991Z,103147.25
2024-02-02T00:11:51.696Z,103146.38
2024-02-02T00:14:18.521Z,103134.03
2024-02-02T00:16:45.255Z,103126.97
2024-02-02T00:19:11.927Z,103128.75
2024-02-02T00:21:38.619Z,103133.13
2024-02-02T00:24:05.473Z,103124.28
2024-02-02T00:26:32.075Z,103117.28
2024-02-02T00:28:58.636Z,103130.44
2024-02-02T00:31:25.123Z,103135.72
2024-02-02T00:33:52.035Z,103133.06
2024-02-02T00:36:18.918Z,103136.53
2024-02-02T00:38:45.449Z,103133.03
2024-02-02T00:41:12.000Z,103132.97
2024-02-02T00:43:38.711Z,103132.97
2024-02-02T00:46:05.453Z,103151.41
2024-02-02T00:48:32.442Z,103147.88
2024-02-02T00:50:59.189Z,103136.44
2024-02-02T00:53:25.757Z,103126.69
2024-02-02T00:55:52.258Z,103122.25
2024-02-02T00:58:18.848Z,103124.84
2024-02-02T01:00:45.532Z,103126.63
2024-02-02T01:03:12.308Z,103110.72
2024-02-02T01:05:38.850Z,103107.19
2024-02-02T01:08:06.646Z,103105.41
2024-02-02T01:10:33.334Z,103100.13
2024-02-02T01:12:59.973Z,103093.06
2024-02-02T01:15:26.981Z,103087.75
2024-02-02T01:17:54.050Z,103090.41
2024-02-02T01:20:21.662Z,103084.16
2024-02-02T01:22:49.202Z,103085.06
2024-02-02T01:25:16.111Z,103083.25
2024-02-02T01:27:43.174Z,103076.19
2024-02-02T01:30:13.373Z,103066.47
2024-02-02T01:32:40.419Z,103058.53
2024-02-02T01:35:07.805Z,103063.78
2024-02-02T01:37:34.974Z,103049.69
2024-02-02T01:40:01.857Z,103039.09
2024-02-02T01:42:28.512Z,103043.50
2024-02-02T01:44:55.400Z,103036.41
2024-02-02T01:47:22.197Z,103035.50
2024-02-02T01:49:49.793Z,103030.22
2024-02-02T01:52:16.621Z,103031.94
2024-02-02T01:54:43.601Z,103042.50
2024-02-02T01:57:10.389Z,103029.25
2024-02-02T01:59:37.339Z,103019.56
2024-02-02T02:02:04.782Z,103013.38
2024-02-02T02:04:31.563Z,103020.44
2024-02-02T02:06:58.582Z,103032.78
2024-02-02T02:09:25.492Z,103023.94
2024-02-02T02:11:52.908Z,103042.41
2024-02-02T02:14:19.958Z,103028.31
2024-02-02T02:16:46.721Z,103023.03
2024-02-02T02:19:15.881Z,103022.16
2024-02-02T02:21:42.919Z,103017.72
2024-02-02T02:24:10.154Z,103018.59
2024-02-02T02:26:37.209Z,103015.97
2024-02-02T02:29:04.274Z,103011.53
2024-02-02T02:31:30.767Z,103004.53
2024-02-02T02:33:57.827Z,102998.38
2024-02-02T02:36:25.113Z,102989.53
2024-02-02T02:38:52.155Z,102980.75
2024-02-02T02:41:18.833Z,102980.75
2024-02-02T02:43:45.593Z,102974.59
2024-02-02T02:46:12.801Z,102971.03
2024-02-02T02:48:39.618Z,102967.53
2024-02-02T02:51:06.536Z,102970.19
2024-02-02T02:53:33.099Z,102963.16
2024-02-02T02:55:59.654Z,102957.88
2024-02-02T02:58:26.391Z,102957.00
2024-02-02T03:00:54.702Z,102949.97
2024-02-02T03:03:21.480Z,102942.94
2024-02-02T03:05:48.499Z,102937.66
2024-02-02T03:08:15.442Z,102930.66
2024-02-02T03:10:43.127Z,102928.03
2024-02-02T03:13:10.154Z,102917.50
2024-02-02T03:15:37.173Z,102917.56
2024-02-02T03:18:04.242Z,102913.22
2024-02-02T03:20:31.283Z,102916.72
2024-02-02T03:22:57.928Z,102922.00
2024-02-02T03:25:24.703Z,102916.72
2024-02-02T03:27:51.351Z,102923.78
2024-02-02T03:30:18.020Z,102915.88
2024-02-02T03:32:46.166Z,102921.16
2024-02-02T03:35:13.513Z,102907.97
2024-02-02T03:37:40.234Z,102904.44
2024-02-02T03:40:07.290Z,102907.09
2024-02-02T03:42:34.069Z,102915.06
2024-02-02T03:45:00.743Z,102922.19
2024-02-02T03:47:27.475Z,102925.69
2024-02-02T03:49:54.232Z,102916.91
2024-02-02T03:52:24.850Z,102923.13
2024-02-02T03:54:52.100Z,102917.81
2024-02-02T03:57:19.369Z,102929.25
2024-02-02T03:59:46.214Z,102921.34
2024-02-02T04:02:13.271Z,102923.06
2024-02-02T04:04:40.623Z,102908.97
2024-02-02T04:07:07.266Z,102911.63
2024-02-02T04:09:34.144Z,102914.25
2024-02-02T04:12:00.771Z,102914.22
2024-02-02T04:14:27.518Z,102910.69
2024-02-02T04:16:53.988Z,102895.72
2024-02-02T04:19:23.614Z,102890.44
2024-02-02T04:21:50.346Z,102907.16
2024-02-02T04:24:18.143Z,102903.63
2024-02-02T04:26:44.871Z,102894.84
2024-02-02T04:29:12.114Z,102888.72
2024-02-02T04:31:38.643Z,102893.06
2024-02-02T04:34:05.425Z,102875.50
2024-02-02T04:36:32.247Z,102872.00
2024-02-02T04:38:59.006Z,102865.84
2024-02-02T04:41:25.933Z,102868.47
2024-02-02T04:43:52.496Z,102862.28
2024-02-02T04:46:19.002Z,102859.66
2024-02-02T04:48:45.671Z,102857.03
2024-02-02T04:51:12.690Z,102852.63
2024-02-02T04:53:39.342Z,102852.63
2024-02-02T04:56:06.314Z,102855.22
2024-02-02T04:58:32.834Z,102852.63
2024-02-02T05:00:59.337Z,102851.78
2024-02-02T05:03:26.014Z,102846.50
2024-02-02T05:05:52.810Z,102844.72
2024-02-02T05:08:19.735Z,102837.72
2024-02-02T05:10:46.416Z,102842.16
2024-02-02T05:13:13.069Z,102833.34
2024-02-02T05:15:41.427Z,102838.63
2024-02-02T05:18:08.452Z,102829.88
2024-02-02T05:20:35.151Z,102821.06
2024-02-02T05:23:01.599Z,102815.78
2024-02-02T05:25:29.052Z,102814.94
2024-02-02T05:27:55.641Z,102818.50
2024-02-02T05:30:22.450Z,102811.50
2024-02-02T05:32:49.074Z,102825.56
2024-02-02T05:35:15.833Z,102825.59
2024-02-02T05:37:42.360Z,102824.69
2024-02-02T05:40:09.657Z,102819.44
2024-02-02T05:42:36.246Z,102815.00
2024-02-02T05:45:02.859Z,102821.22
2024-02-02T05:47:29.534Z,102816.84
2024-02-02T05:49:56.315Z,102823.91
2024-02-02T05:52:22.985Z,102824.78
2024-02-02T05:54:49.676Z,102823.00
2024-02-02T05:57:16.806Z,102812.50
2024-02-02T05:59:43.351Z,102817.78
2024-02-02T06:02:09.867Z,102830.13
2024-02-02T06:04:36.436Z,102833.69
2024-02-02T06:07:03.228Z,102835.41
2024-02-02T06:09:30.188Z,102847.75
2024-02-02T06:11:56.970Z,102838.91
2024-02-02T06:14:26.485Z,102832.78
2024-02-02T06:16:53.040Z,102838.03
2024-02-02T06:19:19.734Z,102847.75
2024-02-02T06:21:46.544Z,102844.25
2024-02-02T06:24:13.416Z,102839.88
2024-02-02T06:26:40.000Z,102844.31
2024-02-02T06:29:06.675Z,102847.75
2024-02-02T06:31:33.612Z,102849.53
2024-02-02T06:34:00.289Z,102838.06
2024-02-02T06:36:29.524Z,102829.31
2024-02-02T06:38:57.346Z,102836.34
2024-02-02T06:41:24.326Z,102828.47
2024-02-02T06:43:51.350Z,102829.38
2024-02-02T06:46:17.988Z,102835.47
2024-02-02T06:48:47.912Z,102835.47
2024-02-02T06:51:14.831Z,102828.41
2024-02-02T06:53:41.386Z,102829.28
2024-02-02T06:56:44.141Z,102824.03
2024-02-02T06:59:11.070Z,102831.06
2024-02-02T07:01:38.297Z,102818.72
2024-02-02T07:04:16.008Z,102823.13
2024-02-02T07:06:43.116Z,102820.47
2024-02-02T07:09:18.656Z,102813.38
2024-02-02T07:11:59.397Z,102814.22
2024-02-02T07:14:44.251Z,102810.72
2024-02-02T07:17:34.960Z,102809.81
2024-02-02T07:20:05.317Z,102820.34
2024-02-02T07:22:39.795Z,102816.84
2024-02-02T07:25:20.266Z,102819.47
2024-02-02T07:27:52.754Z,102823.84
2024-02-02T07:30:49.129Z,102826.50
2024-02-02T07:33:24.927Z,102817.66
2024-02-02T07:35:53.506Z,102839.66
2024-02-02T07:38:22.680Z,102831.72
2024-02-02T07:40:59.429Z,102824.66
2024-02-02T07:43:25.995Z,102820.22
2024-02-02T07:45:52.528Z,102814.94
2024-02-02T07:48:19.893Z,102816.72
2024-02-02T07:50:46.526Z,102818.44
2024-02-02T07:53:13.114Z,102819.31
2024-02-02T07:55:40.929Z,102826.31
2024-02-02T07:58:07.569Z,102823.66
2024-02-02T08:00:34.561Z,102824.56
2024-02-02T08:03:01.252Z,102821.00
2024-02-02T08:05:29.289Z,102818.31
2024-02-02T08:07:56.093Z,102818.31
2024-02-02T08:10:22.667Z,102811.22
2024-02-02T08:12:49.345Z,102821.72
2024-02-02T08:15:15.959Z,102814.66
2024-02-02T08:17:42.533Z,102801.41
2024-02-02T08:20:09.557Z,102813.75
2024-02-02T08:22:36.142Z,102807.47
2024-02-02T08:25:02.807Z,102803.91
2024-02-02T08:27:30.190Z,102802.97
2024-02-02T08:29:57.111Z,102807.31
2024-02-02T08:32:24.048Z,102805.53
2024-02-02T08:34:50.671Z,102796.63
2024-02-02T08:37:17.823Z,102795.69
2024-02-02T08:39:45.495Z,102788.59
2024-02-02T08:42:22.724Z,102791.13
2024-02-02T08:44:52.900Z,102784.03
2024-02-02T08:47:20.883Z,102783.09
2024-02-02T08:49:49.245Z,102763.59
2024-02-02T08:52:31.816Z,102771.44
2024-02-02T08:54:59.053Z,102779.28
2024-02-02T08:57:32.779Z,102772.16
2024-02-02T09:00:06.515Z,102777.34
2024-02-02T09:02:42.096Z,102786.06
2024-02-02T09:05:18.922Z,102767.47
2024-02-02T09:07:51.768Z,102767.38
2024-02-02T09:10:44.784Z,102776.97
2024-02-02T09:13:24.355Z,102777.72
2024-02-02T09:15:51.120Z,102775.00
2024-02-02T09:18:38.648Z,102760.75
2024-02-02T09:21:06.775Z,102765.06
2024-02-02T09:23:34.874Z,102770.28
2024-02-02T09:26:04.994Z,102766.69
2024-02-02T09:28:38.897Z,102774.47
2024-02-02T09:31:08.006Z,102770.88
2024-02-02T09:33:34.730Z,102773.41
2024-02-02T09:36:04.310Z,102769.78
2024-02-02T09:38:31.398Z,102764.41
2024-02-02T09:41:30.708Z,102764.28
2024-02-02T09:44:06.342Z,102763.28
2024-02-02T09:46:45.444Z,102762.34
2024-02-02T09:49:41.472Z,102767.47
2024-02-02T09:52:42.218Z,102770.03
2024-02-02T09:55:38.099Z,102770.84
2024-02-02T09:58:32.005Z,102773.41
2024-02-02T10:01:07.262Z,102767.16
2024-02-02T10:03:49.334Z,102781.19
2024-02-02T10:06:41.194Z,102786.38
2024-02-02T10:09:20.029Z,102777.50
2024-02-02T10:12:13.947Z,102782.69
2024-02-02T10:14:53.112Z,102777.31
2024-02-02T10:17:59.131Z,102783.34
2024-02-02T10:20:25.908Z,102781.50
2024-02-02T10:23:06.876Z,102775.16
2024-02-02T10:25:54.387Z,102785.69
2024-02-02T10:28:53.104Z,102774.97
2024-02-02T10:31:25.894Z,102777.44
2024-02-02T10:34:40.209Z,102772.88
2024-02-02T10:37:24.806Z,102781.59
2024-02-02T10:40:03.986Z,102769.94
2024-02-02T10:42:50.842Z,102775.03
2024-02-02T10:45:38.173Z,102766.03
2024-02-02T10:48:07.969Z,102768.50
2024-02-02T10:50:44.421Z,102771.09
2024-02-02T10:53:48.373Z,102769.25
2024-02-02T10:56:38.879Z,102771.78
2024-02-02T10:59:43.048Z,102765.56
2024-02-02T11:02:15.298Z,102756.56
2024-02-02T11:05:06.360Z,102764.41
2024-02-02T11:07:35.360Z,102750.94
2024-02-02T11:10:07.172Z,102753.50
2024-02-02T11:13:21.580Z,102756.91
2024-02-02T11:16:18.669Z,102761.03
2024-02-02T11:19:08.173Z,102750.31
2024-02-02T11:21:43.483Z,102751.91
2024-02-02T11:24:19.244Z,102764.25
2024-02-02T11:27:10.198Z,102749.16
2024-02-02T11:30:02.607Z,102750.91
2024-02-02T11:33:15.152Z,102742.84
2024-02-02T11:36:07.021Z,102749.03
2024-02-02T11:38:48.999Z,102741.94
2024-02-02T11:41:19.421Z,102740.19
2024-02-02T11:43:47.499Z,102747.25
2024-02-02T11:46:15.360Z,102737.56
2024-02-02T11:48:43.944Z,102739.38
2024-02-02T11:51:11.727Z,102737.63
2024-02-02T11:53:45.856Z,102730.56
2024-02-02T11:56:39.004Z,102719.97
2024-02-02T11:59:23.668Z,102734.16
2024-02-02T12:02:21.992Z,102723.59
2024-02-02T12:05:01.534Z,102736.06
2024-02-02T12:08:04.833Z,102717.53
2024-02-02T12:10:35.207Z,102726.34
2024-02-02T12:13:07.813Z,102734.31
2024-02-02T12:15:34.558Z,102731.66
2024-02-02T12:18:03.658Z,102726.34
2024-02-02T12:20:32.194Z,102728.09
2024-02-02T12:22:59.508Z,102731.63
2024-02-02T12:25:26.485Z,102733.34
2024-02-02T12:27:53.473Z,102728.84
2024-02-02T12:30:20.490Z,102720.81
2024-02-02T12:32:58.120Z,102732.25
2024-02-02T12:35:25.973Z,102718.97
2024-02-02T12:37:53.751Z,102719.72
2024-02-02T12:40:20.917Z,102710.78
2024-02-02T12:42:51.514Z,102697.41
2024-02-02T12:45:21.693Z,102716.78
2024-02-02T12:47:49.983Z,102709.75
2024-02-02T12:50:19.518Z,102708.81
2024-02-02T12:52:48.132Z,102714.00
2024-02-02T12:55:15.506Z,102707.81
2024-02-02T12:57:43.030Z,102704.28
2024-02-02T13:00:16.659Z,102698.91
2024-02-02T13:02:46.571Z,102688.31
2024-02-02T13:05:17.949Z,102687.38
2024-02-02T13:07:49.329Z,102687.31
2024-02-02T13:10:34.927Z,102686.34
2024-02-02T13:13:30.704Z,102688.06
2024-02-02T13:15:57.227Z,102680.97
2024-02-02T13:18:26.184Z,102681.88
2024-02-02T13:20:57.197Z,102677.41
2024-02-02T13:23:31.281Z,102673.84
2024-02-02T13:26:05.331Z,102667.59
2024-02-02T13:28:40.261Z,102665.84
2024-02-02T13:31:19.824Z,102663.97
2024-02-02T13:33:58.914Z,102658.63
2024-02-02T13:36:27.724Z,102649.72
2024-02-02T13:38:56.292Z,102644.28
2024-02-02T13:41:27.629Z,102651.28
2024-02-02T13:43:58.614Z,102637.97
2024-02-02T13:46:29.998Z,102644.94
2024-02-02T13:49:01.381Z,102638.72
2024-02-02T13:51:29.326Z,102642.16
2024-02-02T13:53:56.294Z,102637.66
2024-02-02T13:56:23.964Z,102651.75
2024-02-02T13:58:50.936Z,102632.19
2024-02-02T14:01:19.429Z,102653.38
2024-02-02T14:03:47.206Z,102640.91
2024-02-02T14:06:15.139Z,102646.22
2024-02-02T14:08:47.362Z,102650.59
2024-02-02T14:11:24.535Z,102648.75
2024-02-02T14:13:55.296Z,102645.25
2024-02-02T14:16:23.830Z,102642.59
2024-02-02T14:19:03.886Z,102635.47
2024-02-02T14:21:32.899Z,102639.06
2024-02-02T14:24:18.500Z,102635.50
2024-02-02T14:26:55.042Z,102636.44
2024-02-02T14:29:23.531Z,102634.72
2024-02-02T14:31:57.167Z,102640.03
2024-02-02T14:34:25.351Z,102648.91
2024-02-02T14:36:53.056Z,102641.88
2024-02-02T14:39:27.193Z,102649.84
2024-02-02T14:41:55.754Z,102632.19
2024-02-02T14:44:23.137Z,102638.41
2024-02-02T14:46:50.214Z,102638.41
2024-02-02T14:49:17.559Z,102634.03
2024-02-02T14:51:44.365Z,102614.59
2024-02-02T14:54:10.967Z,102619.03
2024-02-02T14:56:38.296Z,102619.06
2024-02-02T14:59:16.161Z,102608.47
2024-02-02T15:01:43.695Z,102617.34
2024-02-02T15:04:10.458Z,102605.81
2024-02-02T15:06:38.353Z,102612.91
2024-02-02T15:09:14.988Z,102614.59
2024-02-02T15:11:42.955Z,102615.53
2024-02-02T15:14:10.280Z,102611.13
2024-02-02T15:16:37.338Z,102601.44
2024-02-02T15:19:05.186Z,102607.63
2024-02-02T15:21:32.680Z,102597.09
2024-02-02T15:23:59.634Z,102603.16
2024-02-02T15:26:26.537Z,102604.94
2024-02-02T15:28:53.103Z,102602.31
2024-02-02T15:31:19.809Z,102593.50
2024-02-02T15:33:46.775Z,102598.81
2024-02-02T15:36:14.142Z,102605.06
2024-02-02T15:38:59.445Z,102593.63
2024-02-02T15:41:27.229Z,102610.53
2024-02-02T15:43:55.625Z,102599.06
2024-02-02T15:46:22.367Z,102586.75
2024-02-02T15:48:50.966Z,102597.44
2024-02-02T15:51:18.595Z,102601.94
2024-02-02T15:53:46.077Z,102607.31
2024-02-02T15:56:16.775Z,102609.09
2024-02-02T15:58:43.798Z,102611.75
2024-02-02T16:01:10.372Z,102608.22
2024-02-02T16:03:37.472Z,102607.38
2024-02-02T16:06:06.228Z,102610.00
2024-02-02T16:08:32.897Z,102603.84
2024-02-02T16:10:59.562Z,102606.50
2024-02-02T16:13:26.121Z,102607.38
2024-02-02T16:15:52.692Z,102616.16
2024-02-02T16:18:19.294Z,102615.22
2024-02-02T16:20:45.977Z,102609.97
2024-02-02T16:23:12.482Z,102620.47
2024-02-02T16:25:39.141Z,102625.78
2024-02-02T16:28:05.793Z,102624.84
2024-02-02T16:30:32.840Z,102617.81
2024-02-02T16:33:02.291Z,102610.66
2024-02-02T16:35:29.951Z,102604.44
2024-02-02T16:37:56.508Z,102610.53
2024-02-02T16:40:23.158Z,102608.88
2024-02-02T16:42:49.727Z,102600.91
2024-02-02T16:45:17.982Z,102604.44
2024-02-02T16:47:44.960Z,102608.88
2024-02-02T16:50:11.825Z,102608.81
2024-02-02T16:52:38.476Z,102592.88
2024-02-02T16:55:05.367Z,102604.44
2024-02-02T16:57:32.066Z,102608.88
2024-02-02T16:59:58.688Z,102597.38
2024-02-02T17:02:25.326Z,102591.19
2024-02-02T17:04:52.024Z,102591.31
2024-02-02T17:07:19.556Z,102599.25
2024-02-02T17:09:46.459Z,102607.13
2024-02-02T17:12:15.813Z,102602.75
2024-02-02T17:14:42.583Z,102614.28
2024-02-02T17:17:09.195Z,102616.16
2024-02-02T17:19:35.893Z,102625.91
2024-02-02T17:22:02.480Z,102622.34
2024-02-02T17:24:29.328Z,102627.66
2024-02-02T17:26:55.937Z,102628.59
2024-02-02T17:29:22.410Z,102633.97
2024-02-02T17:31:49.048Z,102639.28
2024-02-02T17:34:16.264Z,102645.47
2024-02-02T17:36:43.243Z,102642.84
2024-02-02T17:39:10.021Z,102648.16
2024-02-02T17:41:36.807Z,102642.91
2024-02-02T17:44:03.495Z,102647.38
2024-02-02T17:46:30.394Z,102649.09
2024-02-02T17:48:57.047Z,102641.13
2024-02-02T17:51:24.455Z,102643.78
2024-02-02T17:53:51.028Z,102653.53
2024-02-02T17:56:18.489Z,102651.66
2024-02-02T17:58:45.097Z,102657.88
2024-02-02T18:01:11.974Z,102666.63
2024-02-02T18:03:38.736Z,102671.03
2024-02-02T18:06:05.992Z,102679.00
2024-02-02T18:08:32.762Z,102675.44
2024-02-02T18:11:01.262Z,102680.75
2024-02-02T18:13:28.479Z,102691.38
2024-02-02T18:15:55.315Z,102691.38
2024-02-02T18:18:23.558Z,102688.69
2024-02-02T18:20:50.189Z,102679.00
2024-02-02T18:23:16.719Z,102679.91
2024-02-02T18:25:43.358Z,102676.44
2024-02-02T18:28:14.050Z,102669.34
2024-02-02T18:30:42.260Z,102688.81
2024-02-02T18:33:09.194Z,102687.09
2024-02-02T18:35:36.310Z,102685.31
2024-02-02T18:38:03.372Z,102687.06
2024-02-02T18:40:30.012Z,102686.25
2024-02-02T18:42:56.889Z,102680.97
2024-02-02T18:45:23.568Z,102688.94
2024-02-02T18:47:50.366Z,102689.88
2024-02-02T18:50:17.502Z,102688.16
2024-02-02T18:52:44.229Z,102688.94
2024-02-02T18:55:10.832Z,102681.09
2024-02-02T18:57:37.411Z,102683.75
2024-02-02T19:00:04.776Z,102674.88
2024-02-02T19:02:31.317Z,102680.13
2024-02-02T19:04:58.030Z,102669.50
2024-02-02T19:07:26.747Z,102684.53
2024-02-02T19:09:53.820Z,102698.66
2024-02-02T19:12:20.605Z,102685.31
2024-02-02T19:14:47.327Z,102673.78
2024-02-02T19:17:13.897Z,102676.38
2024-02-02T19:19:40.821Z,102677.25
2024-02-02T19:22:07.518Z,102671.94
2024-02-02T19:24:34.137Z,102669.97
2024-02-02T19:27:00.809Z,102663.84
2024-02-02T19:29:27.519Z,102663.00
2024-02-02T19:31:54.073Z,102665.66
2024-02-02T19:34:20.715Z,102663.81
2024-02-02T19:36:47.443Z,102667.31
2024-02-02T19:39:14.103Z,102671.78
2024-02-02T19:41:40.626Z,102668.19
2024-02-02T19:44:07.275Z,102666.34
2024-02-02T19:46:34.742Z,102666.28
2024-02-02T19:49:03.415Z,102674.22
2024-02-02T19:51:30.757Z,102679.44
2024-02-02T19:53:57.467Z,102690.03
2024-02-02T19:56:24.289Z,102672.38
2024-02-02T19:58:51.617Z,102669.72
2024-02-02T20:01:22.464Z,102679.50
2024-02-02T20:03:50.661Z,102668.91
2024-02-02T20:06:20.860Z,102670.72
2024-02-02T20:08:48.953Z,102691.09
2024-02-02T20:11:16.793Z,102673.50
2024-02-02T20:13:44.252Z,102681.56
2024-02-02T20:16:14.212Z,102682.50
2024-02-02T20:18:41.060Z,102684.34
2024-02-02T20:21:07.714Z,102673.84
2024-02-02T20:23:35.637Z,102686.28
2024-02-02T20:26:05.198Z,102684.56
2024-02-02T20:28:31.943Z,102690.03
2024-02-02T20:30:58.648Z,102683.81
2024-02-02T20:33:26.033Z,102673.25
2024-02-02T20:35:52.798Z,102682.13
2024-02-02T20:38:19.393Z,102675.09
2024-02-02T20:40:45.893Z,102680.41
2024-02-02T20:43:12.724Z,102683.94
2024-02-02T20:45:39.329Z,102670.66
2024-02-02T20:48:06.319Z,102667.06
2024-02-02T20:50:33.261Z,102667.03
2024-02-02T20:52:59.793Z,102670.53
2024-02-02T20:55:26.335Z,102674.91
2024-02-02T20:57:52.919Z,102670.44
2024-02-02T21:00:19.977Z,102665.13
2024-02-02T21:02:46.703Z,102673.09
2024-02-02T21:05:13.481Z,102671.28
2024-02-02T21:07:40.362Z,102669.56
2024-02-02T21:10:07.797Z,102672.16
2024-02-02T21:12:35.004Z,102681.91
2024-02-02T21:15:01.875Z,102682.78
2024-02-02T21:17:29.469Z,102663.31
2024-02-02T21:19:57.982Z,102669.50
2024-02-02T21:22:25.411Z,102671.25
2024-02-02T21:24:52.140Z,102677.41
2024-02-02T21:27:18.689Z,102674.81
2024-02-02T21:29:45.172Z,102674.81
2024-02-02T21:32:11.771Z,102657.97
2024-02-02T21:34:38.621Z,102675.56
2024-02-02T21:37:05.274Z,102674.66
2024-02-02T21:39:31.873Z,102674.59
2024-02-02T21:41:58.501Z,102665.72
2024-02-02T21:44:25.185Z,102662.13
2024-02-02T21:46:51.972Z,102667.38
2024-02-02T21:49:18.791Z,102670.84
2024-02-02T21:51:45.687Z,102667.28
2024-02-02T21:54:13.296Z,102658.38
2024-02-02T21:56:43.638Z,102664.56
2024-02-02T21:59:10.464Z,102667.09
2024-02-02T22:01:39.262Z,102678.56
2024-02-02T22:04:06.181Z,102672.38
2024-02-02T22:06:33.445Z,102666.06
2024-02-02T22:09:02.118Z,102667.72
2024-02-02T22:11:28.684Z,102660.66
2024-02-02T22:13:55.234Z,102658.00
2024-02-02T22:16:21.782Z,102647.31
2024-02-02T22:18:50.133Z,102655.22
2024-02-02T22:21:22.098Z,102653.31
2024-02-02T22:23:48.719Z,102658.63
2024-02-02T22:26:18.634Z,102658.56
2024-02-02T22:28:45.519Z,102661.16
2024-02-02T22:31:22.197Z,102658.44
2024-02-02T22:33:50.304Z,102662.00
2024-02-02T22:36:21.993Z,102668.09
2024-02-02T22:38:51.215Z,102663.63
2024-02-02T22:41:32.020Z,102668.94
2024-02-02T22:44:00.812Z,102670.63
2024-02-02T22:46:30.631Z,102664.31
2024-02-02T22:48:57.274Z,102654.56
2024-02-02T22:51:24.067Z,102654.56
2024-02-02T22:53:50.964Z,102645.72
2024-02-02T22:56:17.524Z,102645.66
2024-02-02T22:58:44.080Z,102636.81
2024-02-02T23:01:10.890Z,102638.63
2024-02-02T23:03:37.998Z,102636.78
2024-02-02T23:06:05.396Z,102634.16
2024-02-02T23:08:32.166Z,102637.75
2024-02-02T23:10:58.989Z,102641.31
2024-02-02T23:13:26.261Z,102653.69
2024-02-02T23:15:57.226Z,102654.59
2024-02-02T23:18:25.139Z,102658.03
2024-02-02T23:20:53.495Z,102650.06
2024-02-02T23:23:20.237Z,102649.25
2024-02-02T23:25:47.106Z,102649.28
2024-02-02T23:28:13.910Z,102651.09
2024-02-02T23:30:41.074Z,102646.63
2024-02-02T23:33:08.371Z,102635.97
2024-02-02T23:35:35.126Z,102629.72
2024-02-02T23:38:01.743Z,102631.47
2024-02-02T23:40:28.766Z,102631.50
2024-02-02T23:42:55.353Z,102630.66
2024-02-02T23:45:22.075Z,102635.97
2024-02-02T23:47:48.707Z,102638.53
2024-02-02T23:50:15.596Z,102638.50
2024-02-02T23:52:42.205Z,102641.09
2024-02-02T23:55:09.053Z,102633.13
2024-02-02T23:57:35.831Z,102635.78
